x

South Santa Rosa Is. Ca (46069) Wave Buoy

11:50 - Thu 18th Sep 2014 All times are PDT. -7 hours from GMT.

  • Sig Wave height 6.6ft
  • Peak Period 10s
  • Average Period 8s
  • Wind
    11mph, 13mph gusts
  • Sea Temp 70°f
  • Air Temp 68°f
  • Sea Pressure 1012mb
  • South Santa Rosa Is. Ca
  • South Santa Rosa Is. Ca

More Historic Weather Station data

Upgrade to MSW Pro to gain access to the past 30 days of data for over 8000 Wavebouys and Weather Stations around the globe.

Join Pro

Comparision Forecast

View Surf forecast
   
jeu. 09/18 11:50 6.5ft 10s 8s 11 13 mph 1012mb 70f 68f
10:50 6ft 16s 9s 16 18 mph 1012.1mb 70f 67f
9:50 7ft 16s 9s 13 18 mph 1012mb 70f 67f
8:50 6ft 10s 9s 11 13 mph 1011.5mb 70f 67f
7:50 6ft 16s 8s 13 18 mph 1010.8mb 69f 67f
6:50 5.5ft 16s 8s 13 16 mph 1010.1mb 69f 67f
5:50 5ft 15s 7s 13 16 mph 1009.6mb 69f 67f
4:50 6ft 16s 7s 18 20 mph 1009.4mb 69f 67f
3:50 5ft 15s 6s 18 22 mph 1009.3mb 69f 67f
2:50 5ft 16s 7s 18 22 mph 1009.5mb 69f 67f
1:50 5ft 16s 7s 18 20 mph 1009.5mb 69f 67f
12:50 5ft 16s 6s 18 22 mph 1009.5mb 69f 67f
mer. 09/17 11:50 5.5ft 16s 6s 20 25 mph 1009.4mb 69f 66f
10:50 5ft 16s 6s 20 22 mph 1009.5mb 69f 66f
9:50 5.5ft 17s 7s 20 25 mph 1009.4mb 69f 66f
8:50 6ft 17s 6s 20 25 mph 1008.9mb 69f 66f
7:50 5.5ft 17s 6s 20 25 mph 1008.6mb 69f 66f
6:50 6ft 17s 6s 20 25 mph 1008.2mb 69f 66f
5:50 6ft 17s 6s 22 27 mph 1008mb 68f 66f
4:50 6ft 17s 6s 22 27 mph 1008mb 68f 66f
3:50 5ft 17s 5s 20 25 mph 1008.3mb 68f 65f
2:50 6ft 17s 6s 20 25 mph 1008.6mb 67f 65f
1:50 6ft 17s 6s 22 27 mph 1009.1mb 67f 65f
12:50 6ft 17s 6s 20 27 mph 1009.4mb 67f 65f
11:50 5ft 17s 5s 22 27 mph 1009.3mb 67f 65f
10:50 5ft 17s 5s 22 27 mph 1009.2mb 67f 64f
9:50 5ft 17s 5s 22 27 mph 1008.6mb 66f 65f
8:50 6ft 17s 6s 22 27 mph 1008.1mb 66f 65f
7:50 5ft 17s 5s 22 27 mph 1007.7mb 66f 65f
6:50 6ft 17s 6s 20 25 mph 1007.1mb 66f 66f
5:50 5.5ft 17s 5s 22 27 mph 1006.6mb 67f 66f
4:50 5.5ft 17s 5s 22 27 mph 1006.5mb 67f 66f
3:50 6.5ft 17s 6s 22 27 mph 1006.2mb 67f 66f
2:50 6ft 6s 5s 22 27 mph 1006.7mb 67f 66f
1:50 7ft 7s 5s 27 31 mph 1006.6mb 67f 66f
12:50 6.5ft 6s 5s 25 34 mph 1006.9mb 67f 66f
mar. 09/16 11:50 7ft 6s 5s 27 34 mph 1006.8mb 68f 66f
10:50 8ft 19s 6s 27 34 mph 1006.9mb 68f 66f
9:50 7ft 7s 5s 27 34 mph 1007.1mb 67f 66f
8:50 7ft 7s 6s 27 31 mph 1006.8mb 67f 67f
7:50 7ft 7s 5s 29 36 mph 1006.7mb 67f 66f
6:50 7ft 7s 6s 27 34 mph 1006.4mb 68f 67f
5:50 7ft 6s 5s 29 36 mph 1006.3mb 68f 66f
4:50 6ft 6s 5s 29 36 mph 1006.1mb 68f 66f
3:50 7ft 19s 6s 22 27 mph 1006.6mb 68f 67f
2:50 6.5ft 6s 5s 20 25 mph 1007.4mb 67f 67f
1:50 7ft 19s 6s 22 29 mph 1008mb 67f 66f
12:50 7ft 6s 5s 22 29 mph 1008.7mb 67f 66f
11:50 7ft 19s 5s 22 27 mph 1009.1mb 67f 66f
10:50 7ft 7s 6s 25 31 mph 1009mb 67f 66f
9:50 6ft 6s 5s 22 29 mph 1009.6mb 66f 66f
8:50 7ft 6s 6s 27 34 mph 1008.8mb 66f 66f
7:50 6ft 7s 5s 25 31 mph 1008.6mb 66f 66f
6:50 7ft 19s 6s 22 27 mph 1008.7mb 66f 66f
5:50 6.5ft 19s 6s 22 29 mph 1008.5mb 67f 66f
4:50 6.5ft 7s 5s 25 29 mph 1008.1mb 67f 67f
3:50 6.5ft 6s 5s 27 34 mph 1008.1mb 67f 67f
2:50 6ft 6s 5s 27 31 mph 1008.3mb 68f 67f
1:50 6ft 6s 5s 27 31 mph 1008.8mb 68f 67f
12:50 6.5ft 6s 5s 27 34 mph 1009mb 68f 68f
lun. 09/15 11:50 6ft 6s 5s 27 34 mph 1009.2mb 69f 68f
10:50 6ft 6s 5s 27 34 mph 1009.2mb 69f 68f
9:50 6ft 6s 5s 27 34 mph 1009.3mb 69f 67f
8:50 5.5ft 5s 5s 27 34 mph 1009.2mb 69f 68f
7:50 5.5ft 6s 5s 29 34 mph 1008.9mb 69f 68f
6:50 5.5ft 6s 5s 27 34 mph 1008.5mb 70f 68f
5:50 5ft 6s 5s 25 31 mph 1008.8mb 70f 68f
4:50 5ft 6s 5s 25 29 mph 1008.8mb 70f 68f
3:50 5ft 6s 5s 22 29 mph 1009mb 69f 67f
2:50 5ft 6s 5s 22 27 mph 1009.3mb 68f 67f
1:50 5.5ft 6s 5s 22 25 mph 1010.1mb 68f 66f
12:50 5ft 6s 5s 25 29 mph 1010.1mb 68f 66f
11:50 5ft 7s 5s 22 25 mph 1010.3mb 68f 66f
10:50 6ft 7s 5s 20 22 mph 1010.5mb 68f 65f
9:50 6ft 6s 5s 22 25 mph 1010.3mb 68f 65f
8:50 5.5ft 6s 5s 20 25 mph 1009.9mb 68f 65f
7:50 5ft 7s 5s 22 27 mph 1009.4mb 68f 65f
6:50 5.5ft 6s 5s 22 27 mph 1009.1mb 68f 65f
5:50 5.5ft 6s 5s 20 25 mph 1008.5mb 67f 65f
4:50 5.5ft 6s 5s 20 25 mph 1007.8mb 68f 66f
3:50 5ft 6s 5s 20 27 mph 1007.6mb 68f 66f
2:50 5ft 6s 5s 20 25 mph 1007.6mb 68f 67f
1:50 5.5ft 6s 5s 22 27 mph 1007.6mb 68f 67f
12:50 5ft 6s 5s 22 27 mph 1007.5mb 69f 67f
dim. 09/14 11:50 5ft 6s 5s 25 29 mph 1007.6mb 69f 67f
10:50 5.5ft 6s 5s 25 29 mph 1007.7mb 69f 67f
9:50 6ft 6s 5s 25 31 mph 1007.5mb 69f 67f
8:50 6ft 6s 5s 25 29 mph 1007.4mb 69f 67f